sensor_id;sensor_type;location;lat;lon;timestamp;pressure;altitude;pressure_sealevel;temperature;humidity
32933;BME280;19444;50.518;10.870;2024-03-02T00:02:50;95428.72;;;4.67;100.00
32933;BME280;19444;50.518;10.870;2024-03-02T00:05:51;95438.72;;;5.56;100.00
32933;BME280;19444;50.518;10.870;2024-03-02T00:08:50;95433.41;;;5.56;100.00
32933;BME280;19444;50.518;10.870;2024-03-02T00:11:47;95437.91;;;5.92;100.00
32933;BME280;19444;50.518;10.870;2024-03-02T00:14:44;95438.31;;;5.40;100.00
32933;BME280;19444;50.518;10.870;2024-03-02T00:17:41;95429.91;;;5.47;100.00
32933;BME280;19444;50.518;10.870;2024-03-02T00:20:39;95433.03;;;5.85;100.00
32933;BME280;19444;50.518;10.870;2024-03-02T00:23:37;95431.81;;;5.69;100.00
32933;BME280;19444;50.518;10.870;2024-03-02T00:26:35;95442.69;;;5.81;100.00
32933;BME280;19444;50.518;10.870;2024-03-02T00:29:32;95432.28;;;5.71;100.00
32933;BME280;19444;50.518;10.870;2024-03-02T00:32:29;95432.97;;;5.99;100.00
32933;BME280;19444;50.518;10.870;2024-03-02T00:35:26;95439.00;;;5.91;100.00
32933;BME280;19444;50.518;10.870;2024-03-02T00:38:24;95430.47;;;6.03;100.00
32933;BME280;19444;50.518;10.870;2024-03-02T00:41:31;95429.00;;;5.74;100.00
32933;BME280;19444;50.518;10.870;2024-03-02T00:44:28;95430.38;;;5.85;100.00
32933;BME280;19444;50.518;10.870;2024-03-02T00:47:31;95438.72;;;5.92;100.00
32933;BME280;19444;50.518;10.870;2024-03-02T00:50:28;95436.13;;;5.65;100.00
32933;BME280;19444;50.518;10.870;2024-03-02T00:53:27;95437.06;;;5.83;100.00
32933;BME280;19444;50.518;10.870;2024-03-02T00:56:24;95432.81;;;5.95;100.00
32933;BME280;19444;50.518;10.870;2024-03-02T00:59:23;95432.91;;;5.68;100.00
32933;BME280;19444;50.518;10.870;2024-03-02T01:02:20;95432.41;;;5.88;100.00
32933;BME280;19444;50.518;10.870;2024-03-02T01:05:18;95434.06;;;5.98;100.00
32933;BME280;19444;50.518;10.870;2024-03-02T01:08:14;95436.50;;;5.50;100.00
32933;BME280;19444;50.518;10.870;2024-03-02T01:11:11;95439.00;;;6.13;100.00
32933;BME280;19444;50.518;10.870;2024-03-02T01:14:08;95446.16;;;6.04;100.00
32933;BME280;19444;50.518;10.870;2024-03-02T01:17:05;95440.94;;;5.99;100.00
32933;BME280;19444;50.518;10.870;2024-03-02T01:20:02;95443.00;;;6.33;100.00
32933;BME280;19444;50.518;10.870;2024-03-02T01:22:59;95436.25;;;5.96;100.00
32933;BME280;19444;50.518;10.870;2024-03-02T01:25:56;95438.25;;;5.54;100.00
32933;BME280;19444;50.518;10.870;2024-03-02T01:28:53;95438.44;;;6.03;100.00
32933;BME280;19444;50.518;10.870;2024-03-02T01:31:50;95432.91;;;5.90;100.00
32933;BME280;19444;50.518;10.870;2024-03-02T01:34:48;95432.75;;;5.73;100.00
32933;BME280;19444;50.518;10.870;2024-03-02T01:37:45;95432.91;;;6.13;100.00
32933;BME280;19444;50.518;10.870;2024-03-02T01:40:42;95434.81;;;6.21;100.00
32933;BME280;19444;50.518;10.870;2024-03-02T01:43:41;95440.47;;;5.97;100.00
32933;BME280;19444;50.518;10.870;2024-03-02T01:46:38;95440.34;;;6.33;100.00
32933;BME280;19444;50.518;10.870;2024-03-02T01:49:35;95436.88;;;6.64;100.00
32933;BME280;19444;50.518;10.870;2024-03-02T01:52:32;95444.66;;;6.20;100.00
32933;BME280;19444;50.518;10.870;2024-03-02T01:55:28;95432.09;;;6.43;100.00
32933;BME280;19444;50.518;10.870;2024-03-02T01:58:27;95447.66;;;5.96;100.00
32933;BME280;19444;50.518;10.870;2024-03-02T02:01:24;95430.41;;;6.56;100.00
32933;BME280;19444;50.518;10.870;2024-03-02T02:04:21;95437.38;;;6.35;100.00
32933;BME280;19444;50.518;10.870;2024-03-02T02:07:23;95432.34;;;6.64;100.00
32933;BME280;19444;50.518;10.870;2024-03-02T02:10:20;95436.31;;;6.84;100.00
32933;BME280;19444;50.518;10.870;2024-03-02T02:13:17;95435.41;;;6.97;100.00
32933;BME280;19444;50.518;10.870;2024-03-02T02:16:14;95431.09;;;6.70;100.00
32933;BME280;19444;50.518;10.870;2024-03-02T02:19:11;95435.03;;;6.33;100.00
32933;BME280;19444;50.518;10.870;2024-03-02T02:22:10;95430.88;;;6.98;100.00
32933;BME280;19444;50.518;10.870;2024-03-02T02:25:07;95423.81;;;7.02;100.00
32933;BME280;19444;50.518;10.870;2024-03-02T02:28:04;95422.88;;;6.98;100.00
32933;BME280;19444;50.518;10.870;2024-03-02T02:31:01;95428.81;;;6.86;100.00
32933;BME280;19444;50.518;10.870;2024-03-02T02:33:59;95430.03;;;6.80;100.00
32933;BME280;19444;50.518;10.870;2024-03-02T02:36:56;95424.88;;;6.83;100.00
32933;BME280;19444;50.518;10.870;2024-03-02T02:39:53;95417.25;;;7.08;100.00
32933;BME280;19444;50.518;10.870;2024-03-02T02:42:50;95417.41;;;7.11;100.00
32933;BME280;19444;50.518;10.870;2024-03-02T02:45:49;95421.00;;;6.98;100.00
32933;BME280;19444;50.518;10.870;2024-03-02T02:48:46;95419.44;;;6.97;100.00
32933;BME280;19444;50.518;10.870;2024-03-02T02:51:43;95419.56;;;6.92;100.00
32933;BME280;19444;50.518;10.870;2024-03-02T02:54:41;95425.16;;;6.73;100.00
32933;BME280;19444;50.518;10.870;2024-03-02T02:57:42;95410.81;;;7.00;100.00
32933;BME280;19444;50.518;10.870;2024-03-02T03:00:40;95416.63;;;7.20;100.00
32933;BME280;19444;50.518;10.870;2024-03-02T03:03:37;95409.44;;;7.29;100.00
32933;BME280;19444;50.518;10.870;2024-03-02T03:06:34;95406.44;;;6.96;100.00
32933;BME280;19444;50.518;10.870;2024-03-02T03:09:32;95409.91;;;7.31;100.00
32933;BME280;19444;50.518;10.870;2024-03-02T03:12:29;95400.19;;;7.44;100.00
32933;BME280;19444;50.518;10.870;2024-03-02T03:15:26;95399.03;;;6.93;100.00
32933;BME280;19444;50.518;10.870;2024-03-02T03:18:23;95399.53;;;7.12;100.00
32933;BME280;19444;50.518;10.870;2024-03-02T03:21:19;95401.44;;;6.54;100.00
32933;BME280;19444;50.518;10.870;2024-03-02T03:24:16;95401.59;;;7.24;100.00
32933;BME280;19444;50.518;10.870;2024-03-02T03:27:13;95390.59;;;6.91;100.00
32933;BME280;19444;50.518;10.870;2024-03-02T03:30:11;95395.44;;;6.80;100.00
32933;BME280;19444;50.518;10.870;2024-03-02T03:33:08;95389.03;;;7.59;100.00
32933;BME280;19444;50.518;10.870;2024-03-02T03:36:05;95399.09;;;7.27;100.00
32933;BME280;19444;50.518;10.870;2024-03-02T03:39:02;95397.00;;;6.81;100.00
32933;BME280;19444;50.518;10.870;2024-03-02T03:42:00;95395.63;;;7.01;100.00
32933;BME280;19444;50.518;10.870;2024-03-02T03:44:56;95400.00;;;6.88;100.00
32933;BME280;19444;50.518;10.870;2024-03-02T03:47:54;95388.09;;;7.20;100.00
32933;BME280;19444;50.518;10.870;2024-03-02T03:50:51;95394.41;;;7.24;100.00
32933;BME280;19444;50.518;10.870;2024-03-02T03:53:48;95400.19;;;7.35;100.00
32933;BME280;19444;50.518;10.870;2024-03-02T03:56:45;95400.19;;;7.18;100.00
32933;BME280;19444;50.518;10.870;2024-03-02T03:59:43;95401.13;;;7.30;100.00
32933;BME280;19444;50.518;10.870;2024-03-02T04:02:40;95394.22;;;7.12;100.00
32933;BME280;19444;50.518;10.870;2024-03-02T04:05:37;95391.56;;;7.21;100.00
32933;BME280;19444;50.518;10.870;2024-03-02T04:08:35;95400.00;;;6.88;100.00
32933;BME280;19444;50.518;10.870;2024-03-02T04:11:32;95394.09;;;7.34;100.00
32933;BME280;19444;50.518;10.870;2024-03-02T04:14:29;95388.38;;;6.84;100.00
32933;BME280;19444;50.518;10.870;2024-03-02T04:17:25;95396.03;;;6.85;100.00
32933;BME280;19444;50.518;10.870;2024-03-02T04:20:22;95411.47;;;6.57;100.00
32933;BME280;19444;50.518;10.870;2024-03-02T04:23:19;95401.16;;;6.56;100.00
32933;BME280;19444;50.518;10.870;2024-03-02T04:26:16;95402.91;;;6.69;100.00
32933;BME280;19444;50.518;10.870;2024-03-02T04:29:18;95400.16;;;6.92;100.00
32933;BME280;19444;50.518;10.870;2024-03-02T04:32:15;95407.63;;;6.72;100.00
32933;BME280;19444;50.518;10.870;2024-03-02T04:35:12;95400.59;;;6.94;100.00
32933;BME280;19444;50.518;10.870;2024-03-02T04:38:09;95407.31;;;6.82;100.00
32933;BME280;19444;50.518;10.870;2024-03-02T04:41:07;95405.47;;;7.00;100.00
32933;BME280;19444;50.518;10.870;2024-03-02T04:44:04;95412.22;;;6.89;100.00
32933;BME280;19444;50.518;10.870;2024-03-02T04:47:01;95419.75;;;6.96;100.00
32933;BME280;19444;50.518;10.870;2024-03-02T04:49:58;95420.81;;;6.95;100.00
32933;BME280;19444;50.518;10.870;2024-03-02T04:52:55;95427.34;;;6.71;100.00
32933;BME280;19444;50.518;10.870;2024-03-02T04:55:52;95425.06;;;6.87;100.00
32933;BME280;19444;50.518;10.870;2024-03-02T04:59:06;95432.94;;;7.09;100.00
32933;BME280;19444;50.518;10.870;2024-03-02T05:02:03;95427.56;;;7.01;100.00
32933;BME280;19444;50.518;10.870;2024-03-02T05:05:00;95422.44;;;7.04;100.00
32933;BME280;19444;50.518;10.870;2024-03-02T05:07:57;95437.75;;;6.99;100.00
32933;BME280;19444;50.518;10.870;2024-03-02T05:10:54;95425.84;;;6.88;100.00
32933;BME280;19444;50.518;10.870;2024-03-02T05:13:51;95436.66;;;6.91;100.00
32933;BME280;19444;50.518;10.870;2024-03-02T05:16:48;95433.72;;;7.10;100.00
32933;BME280;19444;50.518;10.870;2024-03-02T05:19:45;95438.34;;;6.78;100.00
32933;BME280;19444;50.518;10.870;2024-03-02T05:22:42;95446.53;;;6.99;100.00
32933;BME280;19444;50.518;10.870;2024-03-02T05:25:39;95434.34;;;7.16;100.00
32933;BME280;19444;50.518;10.870;2024-03-02T05:28:37;95426.81;;;7.09;100.00
32933;BME280;19444;50.518;10.870;2024-03-02T05:31:33;95431.22;;;7.22;100.00
32933;BME280;19444;50.518;10.870;2024-03-02T05:34:30;95432.16;;;7.18;100.00
32933;BME280;19444;50.518;10.870;2024-03-02T05:37:29;95432.56;;;6.94;100.00
32933;BME280;19444;50.518;10.870;2024-03-02T05:40:26;95435.47;;;7.32;100.00
32933;BME280;19444;50.518;10.870;2024-03-02T05:43:23;95434.19;;;7.12;100.00
32933;BME280;19444;50.518;10.870;2024-03-02T05:46:20;95450.00;;;7.08;100.00
32933;BME280;19444;50.518;10.870;2024-03-02T05:49:17;95446.25;;;7.18;100.00
32933;BME280;19444;50.518;10.870;2024-03-02T05:52:14;95451.41;;;6.97;100.00
32933;BME280;19444;50.518;10.870;2024-03-02T05:55:10;95441.06;;;7.04;100.00
32933;BME280;19444;50.518;10.870;2024-03-02T05:58:08;95441.09;;;7.30;100.00
32933;BME280;19444;50.518;10.870;2024-03-02T06:01:23;95445.06;;;6.84;100.00
32933;BME280;19444;50.518;10.870;2024-03-02T06:04:25;95442.72;;;6.83;100.00
32933;BME280;19444;50.518;10.870;2024-03-02T06:07:22;95440.59;;;7.11;100.00
32933;BME280;19444;50.518;10.870;2024-03-02T06:10:19;95451.72;;;7.04;100.00
32933;BME280;19444;50.518;10.870;2024-03-02T06:13:16;95447.69;;;7.16;100.00
32933;BME280;19444;50.518;10.870;2024-03-02T06:16:12;95453.78;;;7.16;100.00
32933;BME280;19444;50.518;10.870;2024-03-02T06:19:09;95449.56;;;7.24;100.00
32933;BME280;19444;50.518;10.870;2024-03-02T06:22:06;95450.78;;;7.00;100.00
32933;BME280;19444;50.518;10.870;2024-03-02T06:25:06;95446.25;;;7.18;100.00
32933;BME280;19444;50.518;10.870;2024-03-02T06:28:04;95449.03;;;6.96;100.00
32933;BME280;19444;50.518;10.870;2024-03-02T06:31:02;95443.72;;;7.13;100.00
32933;BME280;19444;50.518;10.870;2024-03-02T06:33:59;95452.84;;;7.21;100.00
32933;BME280;19444;50.518;10.870;2024-03-02T06:36:56;95457.38;;;7.20;100.00
32933;BME280;19444;50.518;10.870;2024-03-02T06:39:53;95470.50;;;6.99;100.00
32933;BME280;19444;50.518;10.870;2024-03-02T06:42:50;95467.75;;;7.39;100.00
32933;BME280;19444;50.518;10.870;2024-03-02T06:45:47;95471.34;;;7.26;100.00
32933;BME280;19444;50.518;10.870;2024-03-02T06:48:44;95470.88;;;7.24;100.00
32933;BME280;19444;50.518;10.870;2024-03-02T06:51:41;95470.56;;;7.17;100.00
32933;BME280;19444;50.518;10.870;2024-03-02T06:54:39;95473.81;;;6.96;100.00
32933;BME280;19444;50.518;10.870;2024-03-02T06:57:36;95481.66;;;7.10;100.00
32933;BME280;19444;50.518;10.870;2024-03-02T07:00:32;95476.91;;;6.90;100.00
32933;BME280;19444;50.518;10.870;2024-03-02T07:03:29;95474.44;;;7.02;100.00
32933;BME280;19444;50.518;10.870;2024-03-02T07:06:26;95476.75;;;6.95;100.00
32933;BME280;19444;50.518;10.870;2024-03-02T07:09:23;95480.13;;;7.26;100.00
32933;BME280;19444;50.518;10.870;2024-03-02T07:12:20;95469.19;;;7.54;100.00
32933;BME280;19444;50.518;10.870;2024-03-02T07:15:17;95474.28;;;6.98;100.00
32933;BME280;19444;50.518;10.870;2024-03-02T07:18:23;95492.22;;;7.32;100.00
32933;BME280;19444;50.518;10.870;2024-03-02T07:21:20;95487.47;;;7.12;100.00
32933;BME280;19444;50.518;10.870;2024-03-02T07:24:19;95489.03;;;7.13;100.00
32933;BME280;19444;50.518;10.870;2024-03-02T07:27:17;95491.91;;;6.85;100.00
32933;BME280;19444;50.518;10.870;2024-03-02T07:30:14;95493.78;;;7.25;100.00
32933;BME280;19444;50.518;10.870;2024-03-02T07:33:13;95489.25;;;7.43;100.00
32933;BME280;19444;50.518;10.870;2024-03-02T07:36:10;95494.28;;;7.53;100.00
32933;BME280;19444;50.518;10.870;2024-03-02T07:39:07;95502.16;;;7.01;100.00
32933;BME280;19444;50.518;10.870;2024-03-02T07:42:04;95495.97;;;7.23;100.00
32933;BME280;19444;50.518;10.870;2024-03-02T07:45:03;95498.63;;;7.14;100.00
32933;BME280;19444;50.518;10.870;2024-03-02T07:48:00;95496.84;;;7.09;100.00
32933;BME280;19444;50.518;10.870;2024-03-02T07:50:57;95503.66;;;7.33;100.00
32933;BME280;19444;50.518;10.870;2024-03-02T07:53:54;95509.03;;;7.85;100.00
32933;BME280;19444;50.518;10.870;2024-03-02T07:56:51;95504.66;;;7.63;100.00
32933;BME280;19444;50.518;10.870;2024-03-02T07:59:49;95514.38;;;8.02;100.00
32933;BME280;19444;50.518;10.870;2024-03-02T08:02:46;95505.75;;;7.96;100.00
32933;BME280;19444;50.518;10.870;2024-03-02T08:05:44;95511.94;;;7.31;100.00
32933;BME280;19444;50.518;10.870;2024-03-02T08:08:41;95515.00;;;7.73;100.00
32933;BME280;19444;50.518;10.870;2024-03-02T08:11:38;95510.91;;;7.58;100.00
32933;BME280;19444;50.518;10.870;2024-03-02T08:14:35;95507.31;;;7.54;100.00
32933;BME280;19444;50.518;10.870;2024-03-02T08:17:32;95512.16;;;7.44;100.00
32933;BME280;19444;50.518;10.870;2024-03-02T08:20:33;95514.19;;;7.47;100.00
32933;BME280;19444;50.518;10.870;2024-03-02T08:23:30;95510.75;;;7.55;100.00
32933;BME280;19444;50.518;10.870;2024-03-02T08:26:27;95520.78;;;7.58;100.00
32933;BME280;19444;50.518;10.870;2024-03-02T08:29:26;95517.69;;;7.82;100.00
32933;BME280;19444;50.518;10.870;2024-03-02T08:32:23;95511.84;;;7.54;100.00
32933;BME280;19444;50.518;10.870;2024-03-02T08:35:20;95512.19;;;7.61;100.00
32933;BME280;19444;50.518;10.870;2024-03-02T08:38:19;95515.00;;;7.64;100.00
32933;BME280;19444;50.518;10.870;2024-03-02T08:41:16;95516.38;;;7.45;100.00
32933;BME280;19444;50.518;10.870;2024-03-02T08:44:13;95519.25;;;7.91;100.00
32933;BME280;19444;50.518;10.870;2024-03-02T08:47:10;95513.28;;;8.03;100.00
32933;BME280;19444;50.518;10.870;2024-03-02T08:50:08;95517.66;;;7.73;100.00
32933;BME280;19444;50.518;10.870;2024-03-02T08:53:05;95525.38;;;8.09;100.00
32933;BME280;19444;50.518;10.870;2024-03-02T08:56:02;95523.16;;;8.20;100.00
32933;BME280;19444;50.518;10.870;2024-03-02T08:59:02;95525.03;;;7.76;100.00
32933;BME280;19444;50.518;10.870;2024-03-02T09:01:59;95517.34;;;8.44;100.00
32933;BME280;19444;50.518;10.870;2024-03-02T09:04:57;95525.69;;;8.42;100.00
32933;BME280;19444;50.518;10.870;2024-03-02T09:07:54;95527.94;;;8.78;100.00
32933;BME280;19444;50.518;10.870;2024-03-02T09:10:52;95519.19;;;8.69;100.00
32933;BME280;19444;50.518;10.870;2024-03-02T09:13:49;95525.75;;;8.72;100.00
32933;BME280;19444;50.518;10.870;2024-03-02T09:16:46;95527.06;;;8.31;100.00
32933;BME280;19444;50.518;10.870;2024-03-02T09:19:43;95538.06;;;8.30;100.00
32933;BME280;19444;50.518;10.870;2024-03-02T09:22:40;95540.25;;;8.27;100.00
32933;BME280;19444;50.518;10.870;2024-03-02T09:25:38;95540.69;;;8.73;100.00
32933;BME280;19444;50.518;10.870;2024-03-02T09:28:35;95546.84;;;8.04;100.00
32933;BME280;19444;50.518;10.870;2024-03-02T09:31:32;95542.81;;;8.41;100.00
32933;BME280;19444;50.518;10.870;2024-03-02T09:34:28;95537.94;;;8.43;100.00
32933;BME280;19444;50.518;10.870;2024-03-02T09:37:25;95544.47;;;8.72;100.00
32933;BME280;19444;50.518;10.870;2024-03-02T09:40:23;95539.69;;;8.86;100.00
32933;BME280;19444;50.518;10.870;2024-03-02T09:43:21;95546.19;;;8.68;100.00
32933;BME280;19444;50.518;10.870;2024-03-02T09:46:18;95531.28;;;9.43;100.00
32933;BME280;19444;50.518;10.870;2024-03-02T09:49:15;95532.09;;;9.05;100.00
32933;BME280;19444;50.518;10.870;2024-03-02T09:52:13;95529.44;;;9.35;100.00
32933;BME280;19444;50.518;10.870;2024-03-02T09:55:12;95529.94;;;9.28;100.00
32933;BME280;19444;50.518;10.870;2024-03-02T09:58:09;95524.13;;;8.97;100.00
32933;BME280;19444;50.518;10.870;2024-03-02T10:01:06;95526.03;;;9.26;100.00
32933;BME280;19444;50.518;10.870;2024-03-02T10:04:05;95514.66;;;9.29;100.00
32933;BME280;19444;50.518;10.870;2024-03-02T10:07:18;95521.66;;;9.92;100.00
32933;BME280;19444;50.518;10.870;2024-03-02T10:10:16;95525.34;;;10.21;100.00
32933;BME280;19444;50.518;10.870;2024-03-02T10:13:13;95519.97;;;9.37;100.00
32933;BME280;19444;50.518;10.870;2024-03-02T10:16:13;95527.66;;;10.10;100.00
32933;BME280;19444;50.518;10.870;2024-03-02T10:19:21;95528.00;;;9.37;100.00
32933;BME280;19444;50.518;10.870;2024-03-02T10:22:18;95528.31;;;9.36;100.00
32933;BME280;19444;50.518;10.870;2024-03-02T10:25:33;95528.19;;;10.04;100.00
32933;BME280;19444;50.518;10.870;2024-03-02T10:28:33;95524.09;;;10.06;100.00
32933;BME280;19444;50.518;10.870;2024-03-02T10:31:30;95533.84;;;9.60;100.00
32933;BME280;19444;50.518;10.870;2024-03-02T10:34:27;95530.00;;;10.12;100.00
32933;BME280;19444;50.518;10.870;2024-03-02T10:37:24;95526.94;;;10.01;100.00
32933;BME280;19444;50.518;10.870;2024-03-02T10:40:22;95517.28;;;10.63;100.00
32933;BME280;19444;50.518;10.870;2024-03-02T10:43:20;95520.19;;;10.24;100.00
32933;BME280;19444;50.518;10.870;2024-03-02T10:46:19;95520.81;;;11.12;100.00
32933;BME280;19444;50.518;10.870;2024-03-02T10:49:17;95524.91;;;10.19;100.00
32933;BME280;19444;50.518;10.870;2024-03-02T10:52:14;95513.94;;;10.33;100.00
32933;BME280;19444;50.518;10.870;2024-03-02T10:55:11;95520.16;;;10.58;100.00
32933;BME280;19444;50.518;10.870;2024-03-02T10:58:12;95523.63;;;10.58;100.00
32933;BME280;19444;50.518;10.870;2024-03-02T11:01:13;95520.06;;;10.54;100.00
32933;BME280;19444;50.518;10.870;2024-03-02T11:04:13;95521.69;;;10.46;100.00
32933;BME280;19444;50.518;10.870;2024-03-02T11:07:12;95525.09;;;10.68;100.00
32933;BME280;19444;50.518;10.870;2024-03-02T11:10:10;95519.44;;;11.06;100.00
32933;BME280;19444;50.518;10.870;2024-03-02T11:13:09;95508.72;;;9.94;100.00
32933;BME280;19444;50.518;10.870;2024-03-02T11:16:32;95518.81;;;10.51;100.00
32933;BME280;19444;50.518;10.870;2024-03-02T11:19:32;95510.28;;;10.82;100.00
32933;BME280;19444;50.518;10.870;2024-03-02T11:22:31;95505.34;;;11.70;100.00
32933;BME280;19444;50.518;10.870;2024-03-02T11:25:31;95509.28;;;11.73;100.00
32933;BME280;19444;50.518;10.870;2024-03-02T11:28:38;95508.88;;;12.11;100.00
32933;BME280;19444;50.518;10.870;2024-03-02T11:31:57;95513.03;;;12.52;100.00
32933;BME280;19444;50.518;10.870;2024-03-02T11:34:56;95496.28;;;12.87;100.00
32933;BME280;19444;50.518;10.870;2024-03-02T11:37:53;95495.84;;;12.41;100.00
32933;BME280;19444;50.518;10.870;2024-03-02T11:40:50;95494.22;;;12.08;100.00
32933;BME280;19444;50.518;10.870;2024-03-02T11:43:47;95489.72;;;12.12;100.00
32933;BME280;19444;50.518;10.870;2024-03-02T11:47:10;95483.69;;;12.31;100.00
32933;BME280;19444;50.518;10.870;2024-03-02T11:50:05;95476.41;;;12.32;100.00
32933;BME280;19444;50.518;10.870;2024-03-02T11:53:08;95475.09;;;11.33;100.00
32933;BME280;19444;50.518;10.870;2024-03-02T11:56:07;95474.00;;;11.99;100.00
32933;BME280;19444;50.518;10.870;2024-03-02T11:59:06;95464.19;;;12.78;100.00
32933;BME280;19444;50.518;10.870;2024-03-02T12:02:03;95459.25;;;13.27;100.00
32933;BME280;19444;50.518;10.870;2024-03-02T12:05:03;95468.13;;;11.81;100.00
32933;BME280;19444;50.518;10.870;2024-03-02T12:08:11;95464.28;;;12.66;100.00
32933;BME280;19444;50.518;10.870;2024-03-02T12:11:13;95460.94;;;12.13;100.00
32933;BME280;19444;50.518;10.870;2024-03-02T12:14:13;95456.50;;;13.43;100.00
32933;BME280;19444;50.518;10.870;2024-03-02T12:17:10;95451.94;;;12.49;100.00
32933;BME280;19444;50.518;10.870;2024-03-02T12:20:12;95451.53;;;13.26;100.00
32933;BME280;19444;50.518;10.870;2024-03-02T12:23:09;95449.91;;;14.34;100.00
32933;BME280;19444;50.518;10.870;2024-03-02T12:26:10;95444.19;;;13.97;100.00
32933;BME280;19444;50.518;10.870;2024-03-02T12:29:07;95446.75;;;12.88;100.00
32933;BME280;19444;50.518;10.870;2024-03-02T12:32:05;95445.28;;;12.90;100.00
32933;BME280;19444;50.518;10.870;2024-03-02T12:35:04;95442.31;;;13.11;100.00
32933;BME280;19444;50.518;10.870;2024-03-02T12:38:01;95444.75;;;12.85;100.00
32933;BME280;19444;50.518;10.870;2024-03-02T12:40:58;95441.81;;;12.58;100.00
32933;BME280;19444;50.518;10.870;2024-03-02T12:43:55;95442.97;;;12.29;100.00
32933;BME280;19444;50.518;10.870;2024-03-02T12:46:52;95441.19;;;12.49;100.00
32933;BME280;19444;50.518;10.870;2024-03-02T12:49:54;95446.78;;;12.28;100.00
32933;BME280;19444;50.518;10.870;2024-03-02T12:52:56;95441.44;;;13.07;100.00
32933;BME280;19444;50.518;10.870;2024-03-02T12:55:53;95432.84;;;12.38;100.00
32933;BME280;19444;50.518;10.870;2024-03-02T12:58:55;95435.44;;;13.45;100.00
32933;BME280;19444;50.518;10.870;2024-03-02T13:01:56;95426.38;;;13.53;100.00
32933;BME280;19444;50.518;10.870;2024-03-02T13:04:58;95435.22;;;13.03;100.00
32933;BME280;19444;50.518;10.870;2024-03-02T13:07:55;95438.19;;;12.22;100.00
32933;BME280;19444;50.518;10.870;2024-03-02T13:10:52;95439.06;;;11.58;100.00
32933;BME280;19444;50.518;10.870;2024-03-02T13:13:49;95431.91;;;12.03;100.00
32933;BME280;19444;50.518;10.870;2024-03-02T13:16:47;95428.44;;;12.77;100.00
32933;BME280;19444;50.518;10.870;2024-03-02T13:19:58;95422.56;;;12.56;100.00
32933;BME280;19444;50.518;10.870;2024-03-02T13:22:55;95422.66;;;13.42;100.00
32933;BME280;19444;50.518;10.870;2024-03-02T13:25:52;95419.44;;;14.10;100.00
32933;BME280;19444;50.518;10.870;2024-03-02T13:28:49;95415.53;;;13.88;100.00
32933;BME280;19444;50.518;10.870;2024-03-02T13:31:46;95412.38;;;12.18;100.00
32933;BME280;19444;50.518;10.870;2024-03-02T13:34:46;95401.97;;;12.95;100.00
32933;BME280;19444;50.518;10.870;2024-03-02T13:37:44;95400.03;;;13.62;100.00
32933;BME280;19444;50.518;10.870;2024-03-02T13:40:40;95389.75;;;14.49;100.00
32933;BME280;19444;50.518;10.870;2024-03-02T13:43:38;95397.59;;;14.58;100.00
32933;BME280;19444;50.518;10.870;2024-03-02T13:46:35;95399.91;;;14.36;100.00
32933;BME280;19444;50.518;10.870;2024-03-02T13:49:33;95385.50;;;14.48;100.00
32933;BME280;19444;50.518;10.870;2024-03-02T13:52:33;95397.06;;;13.87;100.00
32933;BME280;19444;50.518;10.870;2024-03-02T13:55:30;95385.63;;;14.55;100.00
32933;BME280;19444;50.518;10.870;2024-03-02T13:58:28;95388.34;;;15.61;100.00
32933;BME280;19444;50.518;10.870;2024-03-02T14:01:25;95383.44;;;15.14;100.00
32933;BME280;19444;50.518;10.870;2024-03-02T14:04:22;95379.16;;;15.99;100.00
32933;BME280;19444;50.518;10.870;2024-03-02T14:07:19;95380.28;;;14.59;100.00
32933;BME280;19444;50.518;10.870;2024-03-02T14:10:16;95387.53;;;14.77;100.00
32933;BME280;19444;50.518;10.870;2024-03-02T14:13:15;95379.63;;;14.23;100.00
32933;BME280;19444;50.518;10.870;2024-03-02T14:16:12;95372.44;;;14.99;95.56
32933;BME280;19444;50.518;10.870;2024-03-02T14:19:09;95378.97;;;14.49;98.92
32933;BME280;19444;50.518;10.870;2024-03-02T14:22:06;95373.41;;;14.19;99.85
32933;BME280;19444;50.518;10.870;2024-03-02T14:25:04;95377.28;;;13.79;100.00
32933;BME280;19444;50.518;10.870;2024-03-02T14:28:01;95380.13;;;13.86;97.58
32933;BME280;19444;50.518;10.870;2024-03-02T14:31:18;95378.00;;;13.57;98.33
32933;BME280;19444;50.518;10.870;2024-03-02T14:34:16;95374.47;;;14.57;91.54
32933;BME280;19444;50.518;10.870;2024-03-02T14:37:14;95368.44;;;14.44;93.59
32933;BME280;19444;50.518;10.870;2024-03-02T14:40:12;95363.66;;;14.11;92.29
32933;BME280;19444;50.518;10.870;2024-03-02T14:43:09;95357.19;;;13.54;93.92
32933;BME280;19444;50.518;10.870;2024-03-02T14:46:07;95353.19;;;13.28;94.47
32933;BME280;19444;50.518;10.870;2024-03-02T14:49:06;95356.09;;;13.58;90.91
32933;BME280;19444;50.518;10.870;2024-03-02T14:52:04;95354.88;;;13.94;86.12
32933;BME280;19444;50.518;10.870;2024-03-02T14:55:02;95349.16;;;13.77;87.68
32933;BME280;19444;50.518;10.870;2024-03-02T14:58:04;95343.88;;;14.03;87.57
32933;BME280;19444;50.518;10.870;2024-03-02T15:01:01;95339.94;;;13.58;95.40
32933;BME280;19444;50.518;10.870;2024-03-02T15:03:58;95335.91;;;13.49;95.24
32933;BME280;19444;50.518;10.870;2024-03-02T15:06:56;95331.81;;;13.35;93.55
32933;BME280;19444;50.518;10.870;2024-03-02T15:09:52;95324.13;;;13.18;92.13
32933;BME280;19444;50.518;10.870;2024-03-02T15:12:51;95323.38;;;13.37;96.29
32933;BME280;19444;50.518;10.870;2024-03-02T15:15:48;95318.63;;;13.30;88.06
32933;BME280;19444;50.518;10.870;2024-03-02T15:18:46;95320.56;;;13.14;87.92
32933;BME280;19444;50.518;10.870;2024-03-02T15:21:43;95315.97;;;13.15;84.63
32933;BME280;19444;50.518;10.870;2024-03-02T15:24:40;95314.41;;;13.14;87.36
32933;BME280;19444;50.518;10.870;2024-03-02T15:27:36;95316.88;;;13.57;83.95
32933;BME280;19444;50.518;10.870;2024-03-02T15:30:33;95319.19;;;13.20;86.06